Petawawa Airport
CYWA : now visible

Airfield :











YOU CAN JOIN US ON...

 
LOGIN :

Register | Disclaimer

   EN    FR    IT 

 









Legend :    VFR   Marginal VFR   IFR   Intensive IFR   Very Intensive IFR
Visi :
Ceiling :
>= 8 km
>= 3000ft
5 to 8 km
1000 to 3000 ft
1500m to 5 km
500 to 1000 ft
800 to 1500m
200 to 500 ft
< 800m
< 200 ft
Symbols :   Thunderstorms  Fog  Heavy snow  Heavy precipitations  Wind > 20 kt






- Airport Elevation : 427 ft
- IATA code : YWA


CYWA - Petawawa

CURRENT METAR :
  • 220000Z AUTO 30002KT 9SM BKN048 09/07 A3012 RMK SLP207

EXPIRED METARs :
  • 212300Z AUTO 28004KT 9SM OVC027 OVC066 10/08 A3012 RMK SLP204
  • 212200Z AUTO 31004KT 9SM OVC027 11/08 A3008 RMK SLP190

TAF TAF CYWA
Valid from the 22 at 00:00 until the 23 at 00:00 UTC


212330Z 2200/2224 VRB03KT P6SM BKN030
TEMPO 2200/2208 BKN020
FM220800 28005KT P6SM BKN025 OVC100
FM221500 28005KT P6SM SCT030 BKN100
BECMG 2218/2220 05005KT
FM222200 05007KT P6SM -SHRA BKN040 OVC070 RMK FCST BASED ON AUTO OBS. NXT FCST BY 220600Z
CZYZ FIR / North America



MET'MAP, your aeronautical weather chart ! - Copyright ORBIFLY December 2007 - Disclaimer

ORBIFLY MET'MAP TEAM :

Programming & Development : Alexandra Zaïnal
Concept & original design : Baudouin d'Aumeries
Assistance for programming : Marc-Olivier Méhu
Technical & hardware support : Manuel Goepfert

Contact : metmap@orbifly.com




SOURCES & CREDITS :

   NOAA       Earth
Advisory